Webcam

2022/05/16 07:20 EBBR 160720Z 22011KT CAVOK 21/12 Q1014 NOSIG

Webcam

--- Refresh now ---